sensor_id;sensor_type;location;lat;lon;timestamp;temperature;humidity
72814;DHT22;60945;48.516;-2.768;2023-03-23T00:01:17;13.10;74.70
72814;DHT22;60945;48.516;-2.768;2023-03-23T00:03:48;13.30;74.00
72814;DHT22;60945;48.516;-2.768;2023-03-23T00:06:14;13.30;73.70
72814;DHT22;60945;48.516;-2.768;2023-03-23T00:08:48;13.10;74.30
72814;DHT22;60945;48.516;-2.768;2023-03-23T00:11:18;13.40;73.90
72814;DHT22;60945;48.516;-2.768;2023-03-23T00:13:50;13.40;73.10
72814;DHT22;60945;48.516;-2.768;2023-03-23T00:16:21;13.20;73.50
72814;DHT22;60945;48.516;-2.768;2023-03-23T00:18:55;13.20;74.10
72814;DHT22;60945;48.516;-2.768;2023-03-23T00:21:23;13.30;73.80
72814;DHT22;60945;48.516;-2.768;2023-03-23T00:24:10;13.30;73.90
72814;DHT22;60945;48.516;-2.768;2023-03-23T00:26:42;13.10;74.00
72814;DHT22;60945;48.516;-2.768;2023-03-23T00:29:20;13.20;74.00
72814;DHT22;60945;48.516;-2.768;2023-03-23T00:31:49;13.40;73.80
72814;DHT22;60945;48.516;-2.768;2023-03-23T00:34:17;13.40;73.00
72814;DHT22;60945;48.516;-2.768;2023-03-23T00:36:49;13.30;73.50
72814;DHT22;60945;48.516;-2.768;2023-03-23T00:39:16;13.40;73.40
72814;DHT22;60945;48.516;-2.768;2023-03-23T00:41:43;13.20;75.70
72814;DHT22;60945;48.516;-2.768;2023-03-23T00:44:09;12.70;78.40
72814;DHT22;60945;48.516;-2.768;2023-03-23T00:46:35;12.50;79.70
72814;DHT22;60945;48.516;-2.768;2023-03-23T00:49:13;12.60;80.00
72814;DHT22;60945;48.516;-2.768;2023-03-23T00:51:40;12.40;81.50
72814;DHT22;60945;48.516;-2.768;2023-03-23T00:54:07;12.20;83.50
72814;DHT22;60945;48.516;-2.768;2023-03-23T00:56:34;12.30;84.70
72814;DHT22;60945;48.516;-2.768;2023-03-23T00:59:00;12.40;84.60
72814;DHT22;60945;48.516;-2.768;2023-03-23T01:01:26;12.60;84.20
72814;DHT22;60945;48.516;-2.768;2023-03-23T01:03:51;12.70;82.70
72814;DHT22;60945;48.516;-2.768;2023-03-23T01:06:27;12.80;82.00
72814;DHT22;60945;48.516;-2.768;2023-03-23T01:08:53;13.00;81.60
72814;DHT22;60945;48.516;-2.768;2023-03-23T01:11:19;13.20;80.60
72814;DHT22;60945;48.516;-2.768;2023-03-23T01:13:45;13.00;78.30
72814;DHT22;60945;48.516;-2.768;2023-03-23T01:16:11;13.10;77.20
72814;DHT22;60945;48.516;-2.768;2023-03-23T01:18:38;13.00;76.70
72814;DHT22;60945;48.516;-2.768;2023-03-23T01:21:16;13.10;76.80
72814;DHT22;60945;48.516;-2.768;2023-03-23T01:23:42;12.90;75.80
72814;DHT22;60945;48.516;-2.768;2023-03-23T01:26:10;12.50;79.40
72814;DHT22;60945;48.516;-2.768;2023-03-23T01:28:37;12.70;80.50
72814;DHT22;60945;48.516;-2.768;2023-03-23T01:31:07;12.80;81.50
72814;DHT22;60945;48.516;-2.768;2023-03-23T01:33:33;12.80;81.20
72814;DHT22;60945;48.516;-2.768;2023-03-23T01:36:09;12.90;80.20
72814;DHT22;60945;48.516;-2.768;2023-03-23T01:38:35;12.70;79.90
72814;DHT22;60945;48.516;-2.768;2023-03-23T01:41:02;12.80;80.50
72814;DHT22;60945;48.516;-2.768;2023-03-23T01:43:28;13.00;79.90
72814;DHT22;60945;48.516;-2.768;2023-03-23T01:45:54;12.90;78.90
72814;DHT22;60945;48.516;-2.768;2023-03-23T01:50:56;12.60;79.60
72814;DHT22;60945;48.516;-2.768;2023-03-23T01:53:24;12.50;80.80
72814;DHT22;60945;48.516;-2.768;2023-03-23T01:55:56;12.60;80.80
72814;DHT22;60945;48.516;-2.768;2023-03-23T01:58:25;12.60;80.50
72814;DHT22;60945;48.516;-2.768;2023-03-23T02:00:54;12.60;80.50
72814;DHT22;60945;48.516;-2.768;2023-03-23T02:03:21;12.70;80.30
72814;DHT22;60945;48.516;-2.768;2023-03-23T02:05:49;12.60;79.30
72814;DHT22;60945;48.516;-2.768;2023-03-23T02:08:17;12.60;79.30
72814;DHT22;60945;48.516;-2.768;2023-03-23T02:10:44;12.60;78.80
72814;DHT22;60945;48.516;-2.768;2023-03-23T02:13:11;12.60;79.30
72814;DHT22;60945;48.516;-2.768;2023-03-23T02:18:23;12.50;79.20
72814;DHT22;60945;48.516;-2.768;2023-03-23T02:27:11;12.50;78.50
72814;DHT22;60945;48.516;-2.768;2023-03-23T02:29:36;12.40;78.80
72814;DHT22;60945;48.516;-2.768;2023-03-23T02:35:44;12.60;78.30
72814;DHT22;60945;48.516;-2.768;2023-03-23T02:40:56;12.40;78.20
72814;DHT22;60945;48.516;-2.768;2023-03-23T02:43:27;12.50;77.60
72814;DHT22;60945;48.516;-2.768;2023-03-23T02:45:54;12.50;77.40
72814;DHT22;60945;48.516;-2.768;2023-03-23T02:48:24;12.70;76.90
72814;DHT22;60945;48.516;-2.768;2023-03-23T02:50:53;12.60;76.40
72814;DHT22;60945;48.516;-2.768;2023-03-23T02:53:22;12.60;76.40
72814;DHT22;60945;48.516;-2.768;2023-03-23T02:55:49;12.60;75.60
72814;DHT22;60945;48.516;-2.768;2023-03-23T02:58:18;12.60;76.10
72814;DHT22;60945;48.516;-2.768;2023-03-23T03:00:44;12.50;75.60
72814;DHT22;60945;48.516;-2.768;2023-03-23T03:03:16;12.50;75.00
72814;DHT22;60945;48.516;-2.768;2023-03-23T03:08:40;12.50;74.30
72814;DHT22;60945;48.516;-2.768;2023-03-23T03:11:13;12.50;75.10
72814;DHT22;60945;48.516;-2.768;2023-03-23T03:16:08;12.50;74.00
72814;DHT22;60945;48.516;-2.768;2023-03-23T03:18:54;12.40;74.60
72814;DHT22;60945;48.516;-2.768;2023-03-23T03:21:23;12.50;75.30
72814;DHT22;60945;48.516;-2.768;2023-03-23T03:23:52;12.50;74.60
72814;DHT22;60945;48.516;-2.768;2023-03-23T03:26:20;12.50;74.70
72814;DHT22;60945;48.516;-2.768;2023-03-23T03:28:47;12.60;74.90
72814;DHT22;60945;48.516;-2.768;2023-03-23T03:31:17;12.70;74.20
72814;DHT22;60945;48.516;-2.768;2023-03-23T03:33:44;12.60;74.60
72814;DHT22;60945;48.516;-2.768;2023-03-23T03:36:19;12.60;75.00
72814;DHT22;60945;48.516;-2.768;2023-03-23T03:38:49;12.50;75.00
72814;DHT22;60945;48.516;-2.768;2023-03-23T03:41:16;12.50;75.50
72814;DHT22;60945;48.516;-2.768;2023-03-23T03:43:42;12.40;75.70
72814;DHT22;60945;48.516;-2.768;2023-03-23T03:46:07;12.50;75.60
72814;DHT22;60945;48.516;-2.768;2023-03-23T03:48:34;12.40;76.20
72814;DHT22;60945;48.516;-2.768;2023-03-23T03:50:59;12.20;76.90
72814;DHT22;60945;48.516;-2.768;2023-03-23T03:53:26;12.30;76.70
72814;DHT22;60945;48.516;-2.768;2023-03-23T03:55:52;12.40;76.80
72814;DHT22;60945;48.516;-2.768;2023-03-23T03:58:26;12.40;76.00
72814;DHT22;60945;48.516;-2.768;2023-03-23T04:01:00;12.40;76.70
72814;DHT22;60945;48.516;-2.768;2023-03-23T04:03:26;12.40;76.20
72814;DHT22;60945;48.516;-2.768;2023-03-23T04:05:53;12.30;76.20
72814;DHT22;60945;48.516;-2.768;2023-03-23T04:08:22;12.20;76.70
72814;DHT22;60945;48.516;-2.768;2023-03-23T04:10:48;12.20;76.80
72814;DHT22;60945;48.516;-2.768;2023-03-23T04:13:14;12.30;76.60
72814;DHT22;60945;48.516;-2.768;2023-03-23T04:15:39;12.40;76.70
72814;DHT22;60945;48.516;-2.768;2023-03-23T04:18:05;12.30;76.80
72814;DHT22;60945;48.516;-2.768;2023-03-23T04:20:32;12.20;77.00
72814;DHT22;60945;48.516;-2.768;2023-03-23T04:23:03;12.30;76.80
72814;DHT22;60945;48.516;-2.768;2023-03-23T04:25:28;12.20;77.30
72814;DHT22;60945;48.516;-2.768;2023-03-23T04:27:58;12.20;77.40
72814;DHT22;60945;48.516;-2.768;2023-03-23T04:30:27;12.20;77.50
72814;DHT22;60945;48.516;-2.768;2023-03-23T04:32:53;12.50;76.20
72814;DHT22;60945;48.516;-2.768;2023-03-23T04:35:22;12.50;76.50
72814;DHT22;60945;48.516;-2.768;2023-03-23T04:37:48;12.40;76.20
72814;DHT22;60945;48.516;-2.768;2023-03-23T04:40:15;12.30;76.70
72814;DHT22;60945;48.516;-2.768;2023-03-23T04:42:43;12.20;77.70
72814;DHT22;60945;48.516;-2.768;2023-03-23T04:45:19;12.30;77.50
72814;DHT22;60945;48.516;-2.768;2023-03-23T04:47:49;12.30;77.60
72814;DHT22;60945;48.516;-2.768;2023-03-23T04:50:27;12.20;78.30
72814;DHT22;60945;48.516;-2.768;2023-03-23T04:52:57;12.30;78.10
72814;DHT22;60945;48.516;-2.768;2023-03-23T04:55:25;12.30;77.70
72814;DHT22;60945;48.516;-2.768;2023-03-23T04:57:51;12.30;77.40
72814;DHT22;60945;48.516;-2.768;2023-03-23T05:00:18;12.30;77.60
72814;DHT22;60945;48.516;-2.768;2023-03-23T05:02:45;12.30;77.40
72814;DHT22;60945;48.516;-2.768;2023-03-23T05:05:13;12.30;77.50
72814;DHT22;60945;48.516;-2.768;2023-03-23T05:07:40;12.40;77.00
72814;DHT22;60945;48.516;-2.768;2023-03-23T05:10:08;12.40;77.00
72814;DHT22;60945;48.516;-2.768;2023-03-23T05:12:34;12.40;76.60
72814;DHT22;60945;48.516;-2.768;2023-03-23T05:15:00;12.40;76.40
72814;DHT22;60945;48.516;-2.768;2023-03-23T05:17:26;12.50;76.00
72814;DHT22;60945;48.516;-2.768;2023-03-23T05:19:52;12.30;77.00
72814;DHT22;60945;48.516;-2.768;2023-03-23T05:22:19;12.40;76.50
72814;DHT22;60945;48.516;-2.768;2023-03-23T05:24:47;12.20;76.70
72814;DHT22;60945;48.516;-2.768;2023-03-23T05:27:13;12.20;77.20
72814;DHT22;60945;48.516;-2.768;2023-03-23T05:29:40;12.10;77.20
72814;DHT22;60945;48.516;-2.768;2023-03-23T05:32:09;12.30;76.70
72814;DHT22;60945;48.516;-2.768;2023-03-23T05:34:36;12.40;76.50
72814;DHT22;60945;48.516;-2.768;2023-03-23T05:37:02;12.30;76.60
72814;DHT22;60945;48.516;-2.768;2023-03-23T05:39:29;12.40;76.70
72814;DHT22;60945;48.516;-2.768;2023-03-23T05:41:55;12.60;76.10
72814;DHT22;60945;48.516;-2.768;2023-03-23T05:44:21;12.70;75.80
72814;DHT22;60945;48.516;-2.768;2023-03-23T05:46:47;12.60;75.90
72814;DHT22;60945;48.516;-2.768;2023-03-23T05:49:14;12.50;76.40
72814;DHT22;60945;48.516;-2.768;2023-03-23T05:51:44;12.40;76.80
72814;DHT22;60945;48.516;-2.768;2023-03-23T05:54:12;12.40;77.40
72814;DHT22;60945;48.516;-2.768;2023-03-23T05:56:38;12.30;77.60
72814;DHT22;60945;48.516;-2.768;2023-03-23T05:59:03;12.30;77.60
72814;DHT22;60945;48.516;-2.768;2023-03-23T06:01:30;12.40;77.50
72814;DHT22;60945;48.516;-2.768;2023-03-23T06:03:57;12.40;77.30
72814;DHT22;60945;48.516;-2.768;2023-03-23T06:06:24;12.50;77.50
72814;DHT22;60945;48.516;-2.768;2023-03-23T06:08:50;12.70;76.70
72814;DHT22;60945;48.516;-2.768;2023-03-23T06:11:16;12.80;76.60
72814;DHT22;60945;48.516;-2.768;2023-03-23T06:13:42;12.70;76.40
72814;DHT22;60945;48.516;-2.768;2023-03-23T06:16:08;12.70;77.00
72814;DHT22;60945;48.516;-2.768;2023-03-23T06:18:34;12.50;76.90
72814;DHT22;60945;48.516;-2.768;2023-03-23T06:21:03;12.50;77.40
72814;DHT22;60945;48.516;-2.768;2023-03-23T06:23:29;12.60;77.10
72814;DHT22;60945;48.516;-2.768;2023-03-23T06:25:59;12.30;77.60
72814;DHT22;60945;48.516;-2.768;2023-03-23T06:28:26;12.20;78.20
72814;DHT22;60945;48.516;-2.768;2023-03-23T06:30:52;12.20;77.90
72814;DHT22;60945;48.516;-2.768;2023-03-23T06:33:18;12.40;78.00
72814;DHT22;60945;48.516;-2.768;2023-03-23T06:35:44;12.50;77.00
72814;DHT22;60945;48.516;-2.768;2023-03-23T06:38:10;12.60;76.90
72814;DHT22;60945;48.516;-2.768;2023-03-23T06:40:35;12.50;76.30
72814;DHT22;60945;48.516;-2.768;2023-03-23T06:43:02;12.50;76.10
72814;DHT22;60945;48.516;-2.768;2023-03-23T06:45:29;12.60;76.20
72814;DHT22;60945;48.516;-2.768;2023-03-23T06:47:56;12.60;75.70
72814;DHT22;60945;48.516;-2.768;2023-03-23T06:50:22;12.40;76.40
72814;DHT22;60945;48.516;-2.768;2023-03-23T06:52:49;12.40;76.30
72814;DHT22;60945;48.516;-2.768;2023-03-23T06:55:16;12.60;75.80
72814;DHT22;60945;48.516;-2.768;2023-03-23T06:57:42;12.70;75.40
72814;DHT22;60945;48.516;-2.768;2023-03-23T07:00:09;12.70;75.50
72814;DHT22;60945;48.516;-2.768;2023-03-23T07:02:38;12.70;74.90
72814;DHT22;60945;48.516;-2.768;2023-03-23T07:05:05;12.70;75.50
72814;DHT22;60945;48.516;-2.768;2023-03-23T07:07:30;13.00;74.00
72814;DHT22;60945;48.516;-2.768;2023-03-23T07:09:56;13.10;73.40
72814;DHT22;60945;48.516;-2.768;2023-03-23T07:12:23;12.90;73.80
72814;DHT22;60945;48.516;-2.768;2023-03-23T07:14:49;13.00;73.50
72814;DHT22;60945;48.516;-2.768;2023-03-23T07:17:15;12.90;74.30
72814;DHT22;60945;48.516;-2.768;2023-03-23T07:19:44;13.10;73.70
72814;DHT22;60945;48.516;-2.768;2023-03-23T07:22:09;13.20;73.30
72814;DHT22;60945;48.516;-2.768;2023-03-23T07:24:37;13.20;73.20
72814;DHT22;60945;48.516;-2.768;2023-03-23T07:27:03;13.40;72.10
72814;DHT22;60945;48.516;-2.768;2023-03-23T07:29:29;13.20;72.40
72814;DHT22;60945;48.516;-2.768;2023-03-23T07:31:55;13.40;72.40
72814;DHT22;60945;48.516;-2.768;2023-03-23T07:34:21;13.00;72.40
72814;DHT22;60945;48.516;-2.768;2023-03-23T07:36:50;13.20;72.50
72814;DHT22;60945;48.516;-2.768;2023-03-23T07:39:16;13.50;70.90
72814;DHT22;60945;48.516;-2.768;2023-03-23T07:41:42;13.70;70.70
72814;DHT22;60945;48.516;-2.768;2023-03-23T07:44:07;13.90;70.00
72814;DHT22;60945;48.516;-2.768;2023-03-23T07:46:33;13.90;69.80
72814;DHT22;60945;48.516;-2.768;2023-03-23T07:48:59;13.80;69.60
72814;DHT22;60945;48.516;-2.768;2023-03-23T07:51:29;14.00;69.40
72814;DHT22;60945;48.516;-2.768;2023-03-23T07:53:55;13.90;69.50
72814;DHT22;60945;48.516;-2.768;2023-03-23T07:56:22;13.90;69.60
72814;DHT22;60945;48.516;-2.768;2023-03-23T07:58:48;14.20;69.40
72814;DHT22;60945;48.516;-2.768;2023-03-23T08:01:15;14.00;69.60
72814;DHT22;60945;48.516;-2.768;2023-03-23T08:03:41;13.70;70.80
72814;DHT22;60945;48.516;-2.768;2023-03-23T08:06:08;14.00;70.30
72814;DHT22;60945;48.516;-2.768;2023-03-23T08:08:34;14.00;70.80
72814;DHT22;60945;48.516;-2.768;2023-03-23T08:11:00;14.50;69.70
72814;DHT22;60945;48.516;-2.768;2023-03-23T08:13:25;14.60;69.00
72814;DHT22;60945;48.516;-2.768;2023-03-23T08:15:51;14.60;68.90
72814;DHT22;60945;48.516;-2.768;2023-03-23T08:18:17;15.10;67.80
72814;DHT22;60945;48.516;-2.768;2023-03-23T08:20:46;15.60;66.10
72814;DHT22;60945;48.516;-2.768;2023-03-23T08:23:12;15.60;66.20
72814;DHT22;60945;48.516;-2.768;2023-03-23T08:25:41;15.70;65.20
72814;DHT22;60945;48.516;-2.768;2023-03-23T08:28:08;15.60;65.80
72814;DHT22;60945;48.516;-2.768;2023-03-23T08:30:35;15.00;66.80
72814;DHT22;60945;48.516;-2.768;2023-03-23T08:33:04;15.20;67.00
72814;DHT22;60945;48.516;-2.768;2023-03-23T08:35:30;15.00;67.20
72814;DHT22;60945;48.516;-2.768;2023-03-23T08:37:56;15.30;66.60
72814;DHT22;60945;48.516;-2.768;2023-03-23T08:40:23;15.30;66.70
72814;DHT22;60945;48.516;-2.768;2023-03-23T08:42:51;15.10;65.90
72814;DHT22;60945;48.516;-2.768;2023-03-23T08:45:23;15.50;65.90
72814;DHT22;60945;48.516;-2.768;2023-03-23T08:47:49;14.90;66.20
72814;DHT22;60945;48.516;-2.768;2023-03-23T08:50:20;14.70;67.30
72814;DHT22;60945;48.516;-2.768;2023-03-23T08:52:46;14.60;67.70
72814;DHT22;60945;48.516;-2.768;2023-03-23T08:55:12;15.20;66.30
72814;DHT22;60945;48.516;-2.768;2023-03-23T08:57:39;15.00;65.90
72814;DHT22;60945;48.516;-2.768;2023-03-23T09:00:10;15.00;65.70
72814;DHT22;60945;48.516;-2.768;2023-03-23T09:02:45;15.40;65.30
72814;DHT22;60945;48.516;-2.768;2023-03-23T09:05:11;15.10;65.70
72814;DHT22;60945;48.516;-2.768;2023-03-23T09:07:38;15.10;65.00
72814;DHT22;60945;48.516;-2.768;2023-03-23T09:10:05;15.50;63.90
72814;DHT22;60945;48.516;-2.768;2023-03-23T09:12:34;15.90;62.90
72814;DHT22;60945;48.516;-2.768;2023-03-23T09:15:01;15.80;62.90
72814;DHT22;60945;48.516;-2.768;2023-03-23T09:17:30;15.80;63.60
72814;DHT22;60945;48.516;-2.768;2023-03-23T09:19:56;15.90;62.70
72814;DHT22;60945;48.516;-2.768;2023-03-23T09:22:22;15.80;62.40
72814;DHT22;60945;48.516;-2.768;2023-03-23T09:24:49;16.00;61.90
72814;DHT22;60945;48.516;-2.768;2023-03-23T09:27:17;16.50;60.40
72814;DHT22;60945;48.516;-2.768;2023-03-23T09:29:43;17.10;60.40
72814;DHT22;60945;48.516;-2.768;2023-03-23T09:32:10;17.80;57.00
72814;DHT22;60945;48.516;-2.768;2023-03-23T09:34:38;17.50;57.30
72814;DHT22;60945;48.516;-2.768;2023-03-23T09:37:05;17.60;56.50
72814;DHT22;60945;48.516;-2.768;2023-03-23T09:39:31;18.50;55.50
72814;DHT22;60945;48.516;-2.768;2023-03-23T09:45:01;18.90;53.90
72814;DHT22;60945;48.516;-2.768;2023-03-23T09:50:08;18.10;55.40
72814;DHT22;60945;48.516;-2.768;2023-03-23T09:52:51;18.60;55.00
72814;DHT22;60945;48.516;-2.768;2023-03-23T09:55:19;19.70;51.10
72814;DHT22;60945;48.516;-2.768;2023-03-23T09:58:12;18.40;54.10
72814;DHT22;60945;48.516;-2.768;2023-03-23T10:01:06;19.20;52.30
72814;DHT22;60945;48.516;-2.768;2023-03-23T10:03:39;20.80;49.80
72814;DHT22;60945;48.516;-2.768;2023-03-23T10:06:10;20.70;50.50
72814;DHT22;60945;48.516;-2.768;2023-03-23T10:08:38;20.70;49.40
72814;DHT22;60945;48.516;-2.768;2023-03-23T10:11:33;21.40;47.80
72814;DHT22;60945;48.516;-2.768;2023-03-23T10:14:12;21.70;46.70
72814;DHT22;60945;48.516;-2.768;2023-03-23T10:21:51;21.10;44.60
72814;DHT22;60945;48.516;-2.768;2023-03-23T10:24:34;20.90;46.70
72814;DHT22;60945;48.516;-2.768;2023-03-23T10:27:18;22.90;43.50
72814;DHT22;60945;48.516;-2.768;2023-03-23T10:29:58;21.10;43.00
72814;DHT22;60945;48.516;-2.768;2023-03-23T10:38:36;18.60;50.70
72814;DHT22;60945;48.516;-2.768;2023-03-23T10:41:23;18.70;50.20
72814;DHT22;60945;48.516;-2.768;2023-03-23T10:43:48;17.10;54.10
72814;DHT22;60945;48.516;-2.768;2023-03-23T10:49:01;17.50;53.80
72814;DHT22;60945;48.516;-2.768;2023-03-23T10:51:36;17.50;54.10
72814;DHT22;60945;48.516;-2.768;2023-03-23T10:54:04;17.60;54.80
72814;DHT22;60945;48.516;-2.768;2023-03-23T10:56:56;17.90;53.40
72814;DHT22;60945;48.516;-2.768;2023-03-23T10:59:30;17.40;53.60
72814;DHT22;60945;48.516;-2.768;2023-03-23T11:02:00;17.30;54.20
72814;DHT22;60945;48.516;-2.768;2023-03-23T11:04:30;17.80;54.00
72814;DHT22;60945;48.516;-2.768;2023-03-23T11:07:00;17.60;52.00
72814;DHT22;60945;48.516;-2.768;2023-03-23T11:09:51;17.70;52.70
72814;DHT22;60945;48.516;-2.768;2023-03-23T11:12:19;18.00;51.90
72814;DHT22;60945;48.516;-2.768;2023-03-23T11:14:45;18.10;51.90
72814;DHT22;60945;48.516;-2.768;2023-03-23T11:17:25;17.70;53.00
72814;DHT22;60945;48.516;-2.768;2023-03-23T11:19:52;17.90;52.70
72814;DHT22;60945;48.516;-2.768;2023-03-23T11:22:31;17.60;53.30
72814;DHT22;60945;48.516;-2.768;2023-03-23T11:25:01;18.20;53.60
72814;DHT22;60945;48.516;-2.768;2023-03-23T11:27:28;21.10;46.30
72814;DHT22;60945;48.516;-2.768;2023-03-23T11:29:57;19.60;49.70
72814;DHT22;60945;48.516;-2.768;2023-03-23T11:32:33;19.90;48.90
72814;DHT22;60945;48.516;-2.768;2023-03-23T11:35:05;19.90;50.20
72814;DHT22;60945;48.516;-2.768;2023-03-23T11:37:42;20.10;48.80
72814;DHT22;60945;48.516;-2.768;2023-03-23T11:42:43;19.10;50.20
72814;DHT22;60945;48.516;-2.768;2023-03-23T11:48:26;19.10;50.40
72814;DHT22;60945;48.516;-2.768;2023-03-23T11:51:00;19.00;51.20
72814;DHT22;60945;48.516;-2.768;2023-03-23T11:56:11;17.40;55.60
72814;DHT22;60945;48.516;-2.768;2023-03-23T11:58:38;17.40;56.70
72814;DHT22;60945;48.516;-2.768;2023-03-23T12:01:36;16.90;58.00
72814;DHT22;60945;48.516;-2.768;2023-03-23T12:12:14;18.30;55.30
72814;DHT22;60945;48.516;-2.768;2023-03-23T12:14:59;18.10;56.60
72814;DHT22;60945;48.516;-2.768;2023-03-23T12:23:03;17.60;58.10
72814;DHT22;60945;48.516;-2.768;2023-03-23T12:45:39;18.30;54.70
72814;DHT22;60945;48.516;-2.768;2023-03-23T12:48:13;17.00;56.90
72814;DHT22;60945;48.516;-2.768;2023-03-23T12:50:43;16.30;59.80
72814;DHT22;60945;48.516;-2.768;2023-03-23T12:53:27;15.90;63.30
72814;DHT22;60945;48.516;-2.768;2023-03-23T13:01:46;17.40;55.70
72814;DHT22;60945;48.516;-2.768;2023-03-23T13:04:26;17.10;54.50
72814;DHT22;60945;48.516;-2.768;2023-03-23T13:06:53;17.00;55.30
72814;DHT22;60945;48.516;-2.768;2023-03-23T13:11:49;16.80;55.60
72814;DHT22;60945;48.516;-2.768;2023-03-23T13:20:02;15.80;60.70
72814;DHT22;60945;48.516;-2.768;2023-03-23T13:28:00;18.10;48.70
72814;DHT22;60945;48.516;-2.768;2023-03-23T13:30:27;18.40;48.00
72814;DHT22;60945;48.516;-2.768;2023-03-23T13:33:05;18.20;47.90
72814;DHT22;60945;48.516;-2.768;2023-03-23T13:35:36;17.60;50.40
72814;DHT22;60945;48.516;-2.768;2023-03-23T13:38:17;17.20;50.60
72814;DHT22;60945;48.516;-2.768;2023-03-23T13:40:44;17.80;49.60
72814;DHT22;60945;48.516;-2.768;2023-03-23T13:43:11;18.50;47.00
72814;DHT22;60945;48.516;-2.768;2023-03-23T13:45:47;17.80;49.60
72814;DHT22;60945;48.516;-2.768;2023-03-23T13:55:51;16.00;57.90
72814;DHT22;60945;48.516;-2.768;2023-03-23T13:58:26;15.40;61.40
72814;DHT22;60945;48.516;-2.768;2023-03-23T14:03:36;16.00;61.10
72814;DHT22;60945;48.516;-2.768;2023-03-23T14:06:12;15.50;62.50
72814;DHT22;60945;48.516;-2.768;2023-03-23T14:08:47;15.60;62.40
72814;DHT22;60945;48.516;-2.768;2023-03-23T14:22:17;15.10;65.90
72814;DHT22;60945;48.516;-2.768;2023-03-23T14:24:44;15.00;65.70
72814;DHT22;60945;48.516;-2.768;2023-03-23T14:27:16;14.90;67.90
72814;DHT22;60945;48.516;-2.768;2023-03-23T14:29:43;14.90;67.90
72814;DHT22;60945;48.516;-2.768;2023-03-23T14:32:16;15.50;66.50
72814;DHT22;60945;48.516;-2.768;2023-03-23T14:34:44;16.30;64.20
72814;DHT22;60945;48.516;-2.768;2023-03-23T14:37:14;16.40;65.00
72814;DHT22;60945;48.516;-2.768;2023-03-23T14:39:44;17.20;61.90
72814;DHT22;60945;48.516;-2.768;2023-03-23T14:42:13;17.00;61.80
72814;DHT22;60945;48.516;-2.768;2023-03-23T14:44:50;15.60;65.50
72814;DHT22;60945;48.516;-2.768;2023-03-23T14:47:23;15.50;66.90
72814;DHT22;60945;48.516;-2.768;2023-03-23T14:50:01;15.80;67.10
72814;DHT22;60945;48.516;-2.768;2023-03-23T14:52:33;15.00;69.20
72814;DHT22;60945;48.516;-2.768;2023-03-23T14:55:17;14.60;71.60
72814;DHT22;60945;48.516;-2.768;2023-03-23T14:57:43;14.80;71.90
72814;DHT22;60945;48.516;-2.768;2023-03-23T15:00:24;14.80;73.20
72814;DHT22;60945;48.516;-2.768;2023-03-23T15:02:56;14.80;72.60
72814;DHT22;60945;48.516;-2.768;2023-03-23T15:05:29;14.00;76.60
72814;DHT22;60945;48.516;-2.768;2023-03-23T15:08:02;13.80;77.90
72814;DHT22;60945;48.516;-2.768;2023-03-23T15:10:29;13.50;79.90
72814;DHT22;60945;48.516;-2.768;2023-03-23T15:12:55;13.60;80.50
72814;DHT22;60945;48.516;-2.768;2023-03-23T15:15:31;13.50;82.10
72814;DHT22;60945;48.516;-2.768;2023-03-23T15:17:59;13.40;82.60
72814;DHT22;60945;48.516;-2.768;2023-03-23T15:20:26;13.60;82.90
72814;DHT22;60945;48.516;-2.768;2023-03-23T15:22:52;13.50;84.60
72814;DHT22;60945;48.516;-2.768;2023-03-23T15:25:28;13.20;84.90
72814;DHT22;60945;48.516;-2.768;2023-03-23T15:33:11;12.40;89.60
72814;DHT22;60945;48.516;-2.768;2023-03-23T15:35:39;12.50;91.40
72814;DHT22;60945;48.516;-2.768;2023-03-23T15:38:17;12.50;92.70
72814;DHT22;60945;48.516;-2.768;2023-03-23T15:40:43;12.10;90.30
72814;DHT22;60945;48.516;-2.768;2023-03-23T15:43:24;12.00;90.70
72814;DHT22;60945;48.516;-2.768;2023-03-23T15:46:02;12.10;89.40
72814;DHT22;60945;48.516;-2.768;2023-03-23T15:48:45;12.10;90.70
72814;DHT22;60945;48.516;-2.768;2023-03-23T15:51:11;12.00;91.20
72814;DHT22;60945;48.516;-2.768;2023-03-23T15:53:39;12.30;93.90
72814;DHT22;60945;48.516;-2.768;2023-03-23T15:56:07;12.40;89.60
72814;DHT22;60945;48.516;-2.768;2023-03-23T15:58:34;12.30;87.00
72814;DHT22;60945;48.516;-2.768;2023-03-23T16:01:37;12.50;86.20
72814;DHT22;60945;48.516;-2.768;2023-03-23T16:06:23;12.50;85.90
72814;DHT22;60945;48.516;-2.768;2023-03-23T16:08:50;12.40;85.30
72814;DHT22;60945;48.516;-2.768;2023-03-23T16:11:17;12.50;84.60
72814;DHT22;60945;48.516;-2.768;2023-03-23T16:13:44;12.70;83.40
72814;DHT22;60945;48.516;-2.768;2023-03-23T16:16:32;12.60;85.50
72814;DHT22;60945;48.516;-2.768;2023-03-23T16:18:58;12.80;83.30
72814;DHT22;60945;48.516;-2.768;2023-03-23T16:21:24;12.70;83.40
72814;DHT22;60945;48.516;-2.768;2023-03-23T16:23:50;13.10;82.50
72814;DHT22;60945;48.516;-2.768;2023-03-23T16:26:16;13.00;82.70
72814;DHT22;60945;48.516;-2.768;2023-03-23T16:28:42;13.10;81.90
72814;DHT22;60945;48.516;-2.768;2023-03-23T16:31:09;13.10;82.70
72814;DHT22;60945;48.516;-2.768;2023-03-23T16:33:35;12.90;83.30
72814;DHT22;60945;48.516;-2.768;2023-03-23T16:36:04;13.00;84.70
72814;DHT22;60945;48.516;-2.768;2023-03-23T16:38:30;13.10;84.50
72814;DHT22;60945;48.516;-2.768;2023-03-23T16:40:55;13.20;85.30
72814;DHT22;60945;48.516;-2.768;2023-03-23T16:43:21;13.40;85.10
72814;DHT22;60945;48.516;-2.768;2023-03-23T16:45:47;13.20;84.30
72814;DHT22;60945;48.516;-2.768;2023-03-23T16:48:15;13.20;85.70
72814;DHT22;60945;48.516;-2.768;2023-03-23T16:50:42;13.40;87.70
72814;DHT22;60945;48.516;-2.768;2023-03-23T16:53:08;13.50;84.20
72814;DHT22;60945;48.516;-2.768;2023-03-23T16:55:35;13.20;86.00
72814;DHT22;60945;48.516;-2.768;2023-03-23T16:58:02;13.10;86.90
72814;DHT22;60945;48.516;-2.768;2023-03-23T17:00:27;13.10;86.90
72814;DHT22;60945;48.516;-2.768;2023-03-23T17:02:55;13.10;87.40
72814;DHT22;60945;48.516;-2.768;2023-03-23T17:05:26;13.10;88.20
72814;DHT22;60945;48.516;-2.768;2023-03-23T17:07:52;13.10;89.00
72814;DHT22;60945;48.516;-2.768;2023-03-23T17:10:20;13.30;88.70
72814;DHT22;60945;48.516;-2.768;2023-03-23T17:12:46;13.20;88.90
72814;DHT22;60945;48.516;-2.768;2023-03-23T17:15:12;13.20;89.30
72814;DHT22;60945;48.516;-2.768;2023-03-23T17:17:38;13.10;91.10
72814;DHT22;60945;48.516;-2.768;2023-03-23T17:20:04;13.10;91.60
72814;DHT22;60945;48.516;-2.768;2023-03-23T17:22:30;12.90;91.00
72814;DHT22;60945;48.516;-2.768;2023-03-23T17:24:56;12.70;93.40
72814;DHT22;60945;48.516;-2.768;2023-03-23T17:27:23;12.70;95.40
72814;DHT22;60945;48.516;-2.768;2023-03-23T17:29:49;12.60;96.10
72814;DHT22;60945;48.516;-2.768;2023-03-23T17:32:15;12.50;97.30
72814;DHT22;60945;48.516;-2.768;2023-03-23T17:34:41;12.40;98.70
72814;DHT22;60945;48.516;-2.768;2023-03-23T17:37:07;12.50;99.90
72814;DHT22;60945;48.516;-2.768;2023-03-23T17:39:34;12.40;99.60
72814;DHT22;60945;48.516;-2.768;2023-03-23T17:42:00;12.40;99.60